createdAt,value
2023-05-05T04:21:49.452Z,48.50
2023-05-05T04:23:19.364Z,48.50
2023-05-05T04:24:49.376Z,48.50
2023-05-05T04:26:19.428Z,48.40
2023-05-05T04:27:49.654Z,48.50
2023-05-05T04:29:19.303Z,48.50
2023-05-05T04:30:49.114Z,48.60
2023-05-05T04:41:20.445Z,48.60
2023-05-05T04:42:50.282Z,48.60
2023-05-05T04:44:20.185Z,48.80
2023-05-05T04:45:50.096Z,49.70
2023-05-05T04:47:19.849Z,50.40
2023-05-05T04:48:49.890Z,50.40
2023-05-05T04:50:19.867Z,50.00
2023-05-05T05:47:47.980Z,52.69
2023-05-05T05:49:17.712Z,52.69
2023-05-05T05:50:47.568Z,52.69
2023-05-05T05:52:17.492Z,52.69
2023-05-05T05:53:47.349Z,52.79
2023-05-05T05:55:17.179Z,52.69
2023-05-05T05:56:48.051Z,52.69
2023-05-05T06:53:41.153Z,51.17
2023-05-05T06:55:11.025Z,51.07
2023-05-05T06:56:40.853Z,51.07
2023-05-05T06:58:10.690Z,50.97
2023-05-05T06:59:40.560Z,50.95
2023-05-05T07:01:10.507Z,50.85
2023-05-05T07:02:40.400Z,50.95
2023-05-05T09:36:13.956Z,48.24
2023-05-05T09:37:43.823Z,48.24
2023-05-05T09:39:13.629Z,48.24
2023-05-05T09:40:43.468Z,48.34
2023-05-05T09:42:12.900Z,48.54
2023-05-05T09:43:42.820Z,48.64
2023-05-05T10:21:42.370Z,47.55
2023-05-05T10:23:11.951Z,47.35
2023-05-05T10:24:41.829Z,47.28
2023-05-05T10:26:11.739Z,47.28
2023-05-05T10:27:41.793Z,47.17
2023-05-05T10:29:11.812Z,47.17
2023-05-05T10:30:41.927Z,47.28
2023-05-05T11:35:26.998Z,47.82
2023-05-05T11:36:56.832Z,47.82
2023-05-05T11:38:26.436Z,47.82
2023-05-05T11:39:56.291Z,47.82
2023-05-05T11:41:27.291Z,47.82
2023-05-05T11:42:57.342Z,47.82
2023-05-05T14:01:29.504Z,49.71
2023-05-05T14:03:02.887Z,49.61
2023-05-05T14:04:33.171Z,49.71
2023-05-05T14:06:01.883Z,49.61
2023-05-05T14:07:32.210Z,49.63
2023-05-05T14:09:01.714Z,49.61
2023-05-05T14:10:32.556Z,49.51
